createdAt,value
2017-08-29T00:00:43.107Z,10.93
2017-08-29T00:03:09.933Z,10.83
2017-08-29T00:05:36.820Z,11.30
2017-08-29T00:08:03.686Z,10.77
2017-08-29T00:10:30.532Z,10.13
2017-08-29T00:12:57.380Z,10.50
2017-08-29T00:15:24.226Z,11.00
2017-08-29T00:17:51.097Z,10.60
2017-08-29T00:20:17.919Z,10.63
2017-08-29T00:22:44.776Z,9.90
2017-08-29T00:25:11.735Z,10.53
2017-08-29T00:27:38.616Z,10.90
2017-08-29T00:30:05.532Z,9.90
2017-08-29T00:32:32.398Z,10.10
2017-08-29T00:34:59.265Z,13.10
2017-08-29T00:37:26.213Z,10.60
2017-08-29T00:39:53.092Z,10.60
2017-08-29T00:42:19.969Z,9.03
2017-08-29T00:44:46.890Z,9.33
2017-08-29T00:47:13.746Z,10.33
2017-08-29T00:49:40.629Z,9.80
2017-08-29T00:52:07.490Z,9.70
2017-08-29T00:54:34.368Z,10.03
2017-08-29T00:57:01.180Z,10.77
2017-08-29T00:59:28.041Z,9.90
2017-08-29T01:01:54.912Z,11.37
2017-08-29T01:04:21.824Z,10.30
2017-08-29T01:06:48.747Z,9.47
2017-08-29T01:09:15.611Z,9.77
2017-08-29T01:11:42.497Z,9.80
2017-08-29T01:14:09.418Z,9.37
2017-08-29T01:16:36.261Z,10.17
2017-08-29T01:19:03.076Z,9.53
2017-08-29T01:21:30.011Z,9.00
2017-08-29T01:23:56.832Z,9.67
2017-08-29T01:26:23.691Z,10.13
2017-08-29T01:28:50.604Z,9.67
2017-08-29T01:31:17.504Z,9.70
2017-08-29T01:33:44.322Z,8.70
2017-08-29T01:36:11.198Z,8.70
2017-08-29T01:38:38.023Z,9.37
2017-08-29T01:41:04.903Z,9.03
2017-08-29T01:43:31.794Z,8.57
2017-08-29T01:45:58.671Z,8.50
2017-08-29T01:48:25.530Z,8.67
2017-08-29T01:50:52.447Z,8.83
2017-08-29T01:53:19.333Z,8.80
2017-08-29T01:55:46.235Z,8.70
2017-08-29T01:58:13.164Z,8.80
2017-08-29T02:00:40.005Z,8.73
2017-08-29T02:03:06.867Z,9.10
2017-08-29T02:05:33.717Z,9.10
2017-08-29T02:08:00.534Z,9.20
2017-08-29T02:10:27.399Z,9.20
2017-08-29T02:12:54.291Z,9.17
2017-08-29T02:15:21.123Z,8.40
2017-08-29T02:17:47.999Z,8.27
2017-08-29T02:20:14.918Z,8.53
2017-08-29T02:22:41.731Z,8.90
2017-08-29T02:25:08.577Z,8.37
2017-08-29T02:27:35.484Z,9.03
2017-08-29T02:30:02.301Z,9.03
2017-08-29T02:32:29.118Z,7.90
2017-08-29T02:34:55.971Z,8.37
2017-08-29T02:37:22.832Z,8.77
2017-08-29T02:39:49.676Z,8.73
2017-08-29T02:42:16.574Z,9.30
2017-08-29T02:44:43.415Z,10.50
2017-08-29T02:47:10.296Z,8.67
2017-08-29T02:49:37.208Z,8.77
2017-08-29T02:52:04.059Z,8.90
2017-08-29T02:54:30.864Z,9.70
2017-08-29T02:56:57.716Z,8.50
2017-08-29T02:59:24.519Z,8.90
2017-08-29T03:01:51.478Z,8.77
2017-08-29T03:04:18.326Z,8.90
2017-08-29T03:06:45.132Z,8.60
2017-08-29T03:09:11.990Z,8.97
2017-08-29T03:11:38.930Z,9.13
2017-08-29T03:14:05.792Z,8.43
2017-08-29T03:19:07.504Z,10.70
2017-08-29T03:21:35.081Z,9.83
2017-08-29T03:24:02.617Z,9.37
2017-08-29T03:26:30.230Z,8.83
2017-08-29T03:28:57.825Z,8.80
2017-08-29T03:31:25.452Z,8.03
2017-08-29T03:33:53.075Z,8.43
2017-08-29T03:36:20.709Z,8.23
2017-08-29T03:38:48.264Z,8.30
2017-08-29T03:41:15.884Z,9.03
2017-08-29T03:43:43.487Z,8.50
2017-08-29T03:46:10.298Z,8.57
2017-08-29T03:48:37.198Z,8.43
2017-08-29T03:51:04.063Z,8.13
2017-08-29T03:53:30.922Z,8.90
2017-08-29T03:55:57.875Z,9.27
2017-08-29T03:58:24.692Z,11.37
2017-08-29T04:00:51.574Z,8.60
2017-08-29T04:03:18.452Z,8.53
2017-08-29T04:05:45.295Z,7.57
2017-08-29T04:08:12.150Z,8.30
2017-08-29T04:10:39.028Z,8.37
2017-08-29T04:13:05.878Z,7.60
2017-08-29T04:15:32.753Z,8.30
2017-08-29T04:17:59.675Z,7.90
2017-08-29T04:20:26.555Z,9.43
2017-08-29T04:22:53.415Z,11.80
2017-08-29T04:25:20.324Z,8.30
2017-08-29T04:27:47.172Z,7.83
2017-08-29T04:30:14.102Z,7.73
2017-08-29T04:32:41.005Z,7.97
2017-08-29T04:35:07.862Z,8.80
2017-08-29T04:37:34.802Z,9.20
2017-08-29T04:40:01.693Z,8.50
2017-08-29T04:42:28.511Z,8.67
2017-08-29T04:44:55.377Z,8.90
2017-08-29T04:47:22.255Z,8.03
2017-08-29T04:49:49.110Z,8.50
2017-08-29T04:52:15.921Z,8.33
2017-08-29T04:54:42.819Z,8.50
2017-08-29T04:57:09.660Z,8.50
2017-08-29T04:59:36.521Z,8.03
2017-08-29T05:02:03.534Z,8.30
2017-08-29T05:04:30.381Z,8.63
2017-08-29T05:06:57.261Z,8.50
2017-08-29T05:09:24.148Z,8.13
2017-08-29T05:11:50.962Z,8.70
2017-08-29T05:14:17.829Z,8.80
2017-08-29T05:16:44.744Z,8.43
2017-08-29T05:19:11.601Z,8.07
2017-08-29T05:21:38.490Z,9.23
2017-08-29T05:24:05.372Z,11.60
2017-08-29T05:26:32.256Z,15.47
2017-08-29T05:28:59.131Z,14.97
2017-08-29T05:31:26.029Z,17.17
2017-08-29T05:33:52.852Z,12.77
2017-08-29T05:36:19.728Z,10.23
2017-08-29T05:38:46.656Z,10.00
2017-08-29T05:41:13.506Z,9.30
2017-08-29T05:43:40.350Z,9.50
2017-08-29T05:46:07.193Z,8.90
2017-08-29T05:48:34.007Z,10.10
2017-08-29T05:51:00.843Z,9.67
2017-08-29T05:53:27.751Z,9.03
2017-08-29T05:55:54.636Z,8.67
2017-08-29T05:58:21.510Z,8.07
2017-08-29T06:00:48.406Z,10.13
2017-08-29T06:03:15.284Z,9.33
2017-08-29T06:05:42.124Z,9.87
2017-08-29T06:08:09.012Z,10.20
2017-08-29T06:10:35.859Z,9.30
2017-08-29T06:13:02.712Z,10.77
2017-08-29T06:15:29.605Z,9.70
2017-08-29T06:17:56.457Z,9.70
2017-08-29T06:20:23.299Z,8.90
2017-08-29T06:22:50.192Z,9.67
2017-08-29T06:25:17.049Z,7.90
2017-08-29T06:27:43.933Z,8.53
2017-08-29T06:30:10.828Z,9.47
2017-08-29T06:32:37.729Z,9.00
2017-08-29T06:35:04.629Z,10.80
2017-08-29T06:37:31.538Z,9.00
2017-08-29T06:39:58.351Z,9.27
2017-08-29T06:42:25.159Z,9.50
2017-08-29T06:44:52.043Z,9.33
2017-08-29T06:47:18.923Z,10.23
2017-08-29T06:49:45.800Z,8.33
2017-08-29T06:52:12.772Z,8.80
2017-08-29T06:54:39.588Z,9.37
2017-08-29T06:57:06.477Z,9.63
2017-08-29T06:59:33.328Z,8.60
2017-08-29T07:02:00.231Z,8.50
2017-08-29T07:04:27.086Z,8.83
2017-08-29T07:06:53.963Z,8.73
2017-08-29T07:09:20.790Z,8.77
2017-08-29T07:11:47.601Z,8.83
2017-08-29T07:14:14.497Z,8.43
2017-08-29T07:16:41.358Z,8.87
2017-08-29T07:19:08.170Z,8.67
2017-08-29T07:21:35.086Z,8.90
2017-08-29T07:24:02.010Z,8.30
2017-08-29T07:26:28.870Z,9.13
2017-08-29T07:28:55.779Z,8.40
2017-08-29T07:31:22.652Z,8.73
2017-08-29T07:33:49.511Z,9.20
2017-08-29T07:36:16.431Z,8.50
2017-08-29T07:38:43.309Z,8.47
2017-08-29T07:41:10.147Z,8.47
2017-08-29T07:43:37.065Z,8.60
2017-08-29T07:46:03.919Z,9.10
2017-08-29T07:48:30.771Z,7.60
2017-08-29T07:50:57.687Z,7.87
2017-08-29T07:53:24.553Z,7.30
2017-08-29T07:55:51.375Z,7.43
2017-08-29T07:58:18.217Z,7.80
2017-08-29T08:00:45.055Z,7.30
2017-08-29T08:03:12.004Z,8.00
2017-08-29T08:05:38.842Z,7.70
2017-08-29T08:08:05.684Z,7.20
2017-08-29T08:10:32.549Z,7.07
2017-08-29T08:12:59.440Z,6.50
2017-08-29T08:15:26.311Z,7.37
2017-08-29T08:17:53.190Z,7.13
2017-08-29T08:20:20.270Z,6.90
2017-08-29T08:22:47.153Z,7.10
2017-08-29T08:25:13.995Z,8.10
2017-08-29T08:27:40.883Z,8.50
2017-08-29T08:30:07.740Z,7.27
2017-08-29T08:32:34.616Z,6.70
2017-08-29T08:35:01.464Z,6.53
2017-08-29T08:37:28.303Z,6.70
2017-08-29T08:39:55.148Z,7.03
2017-08-29T08:42:22.028Z,8.00
2017-08-29T08:44:48.885Z,8.10
2017-08-29T08:47:15.695Z,8.90
2017-08-29T08:49:42.598Z,8.03
2017-08-29T08:52:09.560Z,9.30
2017-08-29T08:54:36.396Z,8.63
2017-08-29T08:57:03.244Z,8.77
2017-08-29T08:59:30.147Z,9.93
2017-08-29T09:01:57.001Z,9.30
2017-08-29T09:04:23.893Z,8.83
2017-08-29T09:06:50.757Z,10.00
2017-08-29T09:09:17.598Z,9.00
2017-08-29T09:11:44.493Z,9.90
2017-08-29T09:14:11.372Z,10.00
2017-08-29T09:16:38.233Z,9.07
2017-08-29T09:19:05.138Z,9.30
2017-08-29T09:21:32.070Z,10.90
2017-08-29T09:23:58.878Z,9.83
2017-08-29T09:26:25.783Z,11.13
2017-08-29T09:28:52.667Z,11.00
2017-08-29T09:31:19.485Z,10.67
2017-08-29T09:33:46.389Z,10.57
2017-08-29T09:36:13.328Z,10.20
2017-08-29T09:38:40.201Z,10.13
2017-08-29T09:41:07.416Z,9.90
2017-08-29T09:43:34.292Z,9.83
2017-08-29T09:46:01.204Z,9.20
2017-08-29T09:48:28.102Z,10.17
2017-08-29T09:50:54.997Z,10.43
2017-08-29T09:53:21.896Z,9.90
2017-08-29T09:55:48.801Z,11.13
2017-08-29T09:58:15.681Z,10.17
2017-08-29T10:00:42.676Z,11.60
2017-08-29T10:03:09.784Z,10.87
2017-08-29T10:05:36.636Z,11.13
2017-08-29T10:08:03.459Z,10.30
2017-08-29T10:10:30.373Z,10.67
2017-08-29T10:12:57.231Z,10.20
2017-08-29T10:15:24.048Z,9.90
2017-08-29T10:17:50.967Z,10.50
2017-08-29T10:20:17.829Z,11.30
2017-08-29T10:22:44.673Z,10.70
2017-08-29T10:25:11.573Z,11.90
2017-08-29T10:27:38.448Z,10.50
2017-08-29T10:30:05.305Z,11.23
2017-08-29T10:32:32.171Z,12.37
2017-08-29T10:34:58.991Z,12.40
2017-08-29T10:37:25.840Z,10.77
2017-08-29T10:39:52.798Z,11.10
2017-08-29T10:42:19.647Z,13.23
2017-08-29T10:44:46.496Z,12.37
2017-08-29T10:47:13.412Z,13.77
2017-08-29T10:49:40.292Z,13.20
2017-08-29T10:52:07.170Z,14.40
2017-08-29T10:54:34.023Z,13.97
2017-08-29T10:57:00.874Z,15.13
2017-08-29T10:59:27.752Z,14.33
2017-08-29T11:01:54.692Z,14.97
2017-08-29T11:04:21.578Z,15.13
2017-08-29T11:06:48.476Z,14.37
2017-08-29T11:09:15.422Z,15.70
2017-08-29T11:11:42.272Z,14.90
2017-08-29T11:14:09.086Z,16.20
2017-08-29T11:16:35.974Z,16.83
2017-08-29T11:19:02.845Z,16.47
2017-08-29T11:21:29.673Z,15.90
2017-08-29T11:23:56.601Z,18.13
2017-08-29T11:26:23.460Z,16.07
2017-08-29T11:28:50.336Z,20.80
2017-08-29T11:31:17.244Z,15.77
2017-08-29T11:33:44.153Z,16.57
2017-08-29T11:36:11.048Z,16.73
2017-08-29T11:38:37.941Z,17.47
2017-08-29T11:41:04.808Z,16.37
2017-08-29T11:43:31.655Z,17.80
2017-08-29T11:45:58.574Z,15.57
2017-08-29T11:48:25.495Z,15.50
2017-08-29T11:50:52.318Z,16.33
2017-08-29T11:53:19.227Z,14.53
2017-08-29T11:55:46.129Z,15.13
2017-08-29T11:58:13.009Z,14.20
2017-08-29T12:00:39.919Z,18.93
2017-08-29T12:03:06.819Z,14.90
2017-08-29T12:05:33.646Z,13.20
2017-08-29T12:08:00.507Z,13.17
2017-08-29T12:10:27.402Z,13.00
2017-08-29T12:12:54.270Z,11.80
2017-08-29T12:15:21.159Z,11.27
2017-08-29T12:17:47.977Z,10.83
2017-08-29T12:20:14.848Z,11.77
2017-08-29T12:22:41.741Z,10.40
2017-08-29T12:25:08.559Z,11.07
2017-08-29T12:27:35.432Z,10.63
2017-08-29T12:30:02.354Z,12.13
2017-08-29T12:32:29.221Z,10.90
2017-08-29T12:34:56.084Z,10.77
2017-08-29T12:37:22.951Z,10.70
2017-08-29T12:39:49.817Z,11.30
2017-08-29T12:42:16.702Z,9.90
2017-08-29T12:44:43.658Z,9.73
2017-08-29T12:47:10.596Z,9.80
2017-08-29T12:49:37.415Z,10.70
2017-08-29T12:52:04.275Z,10.90
2017-08-29T12:54:31.162Z,9.57
2017-08-29T12:56:57.983Z,10.70
2017-08-29T12:59:24.858Z,10.87
2017-08-29T13:01:51.702Z,10.73
2017-08-29T13:04:18.582Z,10.40
2017-08-29T13:06:45.480Z,12.37
2017-08-29T13:09:12.338Z,10.30
2017-08-29T13:11:39.201Z,10.80
2017-08-29T13:14:06.170Z,10.27
2017-08-29T13:16:32.986Z,12.20
2017-08-29T13:18:59.856Z,10.50
2017-08-29T13:21:26.758Z,10.10
2017-08-29T13:23:53.627Z,11.93
2017-08-29T13:26:20.496Z,10.80
2017-08-29T13:28:47.381Z,10.37
2017-08-29T13:31:14.265Z,10.17
2017-08-29T13:33:41.125Z,12.20
2017-08-29T13:36:08.017Z,11.73
2017-08-29T13:38:34.878Z,10.50
2017-08-29T13:41:01.841Z,11.43
2017-08-29T13:43:28.734Z,10.37
2017-08-29T13:45:55.625Z,10.70
2017-08-29T13:48:22.528Z,10.80
2017-08-29T13:50:49.420Z,10.70
2017-08-29T13:53:16.357Z,11.13
2017-08-29T13:55:43.238Z,10.80
2017-08-29T13:58:11.009Z,10.97
2017-08-29T14:00:37.911Z,12.00
2017-08-29T14:03:04.735Z,11.00
2017-08-29T14:05:31.657Z,12.27
2017-08-29T14:07:58.552Z,47.93
2017-08-29T14:10:25.426Z,22.03
2017-08-29T14:12:52.349Z,21.50
2017-08-29T14:15:19.213Z,15.10
2017-08-29T14:17:46.110Z,15.83
2017-08-29T14:20:12.994Z,14.60
2017-08-29T14:22:39.846Z,13.27
2017-08-29T14:25:06.735Z,12.50
2017-08-29T14:27:33.697Z,13.70
2017-08-29T14:30:00.636Z,12.70
2017-08-29T14:32:27.506Z,13.17
2017-08-29T14:34:54.429Z,12.17
2017-08-29T14:37:21.357Z,15.23
2017-08-29T14:39:48.212Z,14.93
2017-08-29T14:42:15.067Z,16.90
2017-08-29T14:44:41.937Z,13.27
2017-08-29T14:47:14.644Z,11.70
2017-08-29T14:49:41.504Z,11.37
2017-08-29T14:52:08.358Z,11.77
2017-08-29T14:54:35.298Z,11.63
2017-08-29T14:57:02.243Z,12.23
2017-08-29T14:59:29.063Z,10.87
2017-08-29T15:01:55.937Z,11.47
2017-08-29T15:04:22.865Z,12.17
2017-08-29T15:06:49.749Z,14.13
2017-08-29T15:09:16.769Z,13.20
2017-08-29T15:11:43.811Z,14.23
2017-08-29T15:14:10.690Z,11.70
2017-08-29T15:16:37.540Z,12.23
2017-08-29T15:19:04.388Z,12.40
2017-08-29T15:21:31.386Z,11.07
2017-08-29T15:23:58.272Z,13.30
2017-08-29T15:26:25.173Z,13.93
2017-08-29T15:28:52.072Z,14.33
2017-08-29T15:31:18.955Z,14.77
2017-08-29T15:33:45.858Z,13.80
2017-08-29T15:36:12.844Z,12.30
2017-08-29T15:38:39.696Z,14.60
2017-08-29T15:41:06.620Z,16.60
2017-08-29T15:43:33.450Z,11.70
2017-08-29T15:46:00.419Z,11.90
2017-08-29T15:48:27.339Z,16.83
2017-08-29T15:50:54.212Z,15.50
2017-08-29T15:53:21.693Z,14.63
2017-08-29T15:55:48.601Z,15.03
2017-08-29T15:58:15.450Z,13.70
2017-08-29T16:00:42.338Z,12.30
2017-08-29T16:03:09.335Z,11.20
2017-08-29T16:05:36.233Z,13.03
2017-08-29T16:08:03.062Z,11.50
2017-08-29T16:10:29.989Z,12.23
2017-08-29T16:12:56.851Z,14.33
2017-08-29T16:15:23.698Z,13.77
2017-08-29T16:17:50.598Z,14.63
2017-08-29T16:20:17.480Z,12.67
2017-08-29T16:22:44.365Z,12.33
2017-08-29T16:25:11.267Z,12.97
2017-08-29T16:27:38.168Z,14.13
2017-08-29T16:30:05.028Z,13.23
2017-08-29T16:32:31.979Z,13.40
2017-08-29T16:34:58.827Z,12.47
2017-08-29T16:37:25.718Z,12.87
2017-08-29T16:39:52.622Z,14.23
2017-08-29T16:42:19.520Z,16.43
2017-08-29T16:44:46.411Z,13.40
2017-08-29T16:47:13.362Z,12.60
2017-08-29T16:49:40.198Z,13.13
2017-08-29T16:52:07.028Z,16.60
2017-08-29T16:54:33.898Z,13.70
2017-08-29T16:57:00.835Z,14.67
2017-08-29T16:59:27.702Z,13.00
2017-08-29T17:01:54.667Z,13.77
2017-08-29T17:04:21.557Z,13.63
2017-08-29T17:06:48.388Z,13.10
2017-08-29T17:09:15.280Z,12.57
2017-08-29T17:11:42.157Z,14.87
2017-08-29T17:14:09.001Z,10.63
2017-08-29T17:16:36.099Z,11.70
2017-08-29T17:19:02.980Z,12.17
2017-08-29T17:21:30.685Z,11.03
2017-08-29T17:23:57.595Z,14.50
2017-08-29T17:26:24.430Z,14.00
2017-08-29T17:28:51.295Z,12.80
2017-08-29T17:31:18.176Z,12.73
2017-08-29T17:33:45.040Z,12.40
2017-08-29T17:36:11.876Z,13.00
2017-08-29T17:38:38.798Z,13.10
2017-08-29T17:41:05.656Z,12.17
2017-08-29T17:43:32.503Z,10.53
2017-08-29T17:45:59.405Z,10.67
2017-08-29T17:48:26.237Z,12.00
2017-08-29T17:50:53.060Z,12.80
2017-08-29T17:53:19.965Z,11.43
2017-08-29T17:55:46.905Z,11.17
2017-08-29T17:58:13.780Z,13.27
2017-08-29T18:00:40.701Z,10.60
2017-08-29T18:03:07.597Z,10.10
2017-08-29T18:05:34.510Z,11.37
2017-08-29T18:08:01.379Z,9.83
2017-08-29T18:10:28.295Z,9.33
2017-08-29T18:12:55.155Z,9.30
2017-08-29T18:15:22.118Z,9.20
2017-08-29T18:17:48.984Z,9.57
2017-08-29T18:20:15.843Z,9.23
2017-08-29T18:22:42.781Z,9.10
2017-08-29T18:25:09.762Z,9.67
2017-08-29T18:27:36.625Z,10.37
2017-08-29T18:30:03.535Z,11.00
2017-08-29T18:32:30.391Z,11.10
2017-08-29T18:34:57.253Z,10.83
2017-08-29T18:37:24.172Z,10.93
2017-08-29T18:39:51.681Z,11.33
2017-08-29T18:42:18.499Z,11.00
2017-08-29T18:44:45.425Z,9.47
2017-08-29T18:47:12.304Z,10.80
2017-08-29T18:49:39.194Z,11.00
2017-08-29T18:52:06.116Z,10.67
2017-08-29T18:54:32.944Z,9.80
2017-08-29T18:56:59.760Z,12.63
2017-08-29T18:59:26.691Z,9.80
2017-08-29T19:01:53.564Z,9.40
2017-08-29T19:04:20.474Z,11.53
2017-08-29T19:06:47.336Z,9.90
2017-08-29T19:09:14.151Z,9.90
2017-08-29T19:11:41.041Z,10.97
2017-08-29T19:14:07.908Z,10.00
2017-08-29T19:16:34.772Z,10.17
2017-08-29T19:19:01.627Z,10.63
2017-08-29T19:21:28.483Z,10.10
2017-08-29T19:23:55.380Z,10.23
2017-08-29T19:26:22.259Z,10.20
2017-08-29T19:28:49.173Z,14.83
2017-08-29T19:31:16.548Z,10.90
2017-08-29T19:33:43.421Z,10.63
2017-08-29T19:36:10.329Z,11.57
2017-08-29T19:38:37.164Z,11.83
2017-08-29T19:41:03.984Z,11.40
2017-08-29T19:43:30.881Z,11.87
2017-08-29T19:45:57.800Z,13.80
2017-08-29T19:48:24.671Z,10.67
2017-08-29T19:50:51.589Z,9.70
2017-08-29T19:53:18.411Z,10.37
2017-08-29T19:55:45.237Z,10.03
2017-08-29T19:58:12.213Z,9.57
2017-08-29T20:00:39.036Z,9.77
2017-08-29T20:03:06.003Z,11.73
2017-08-29T20:05:32.861Z,8.80
2017-08-29T20:07:59.746Z,10.57
2017-08-29T20:10:26.634Z,9.33
2017-08-29T20:12:53.498Z,9.37
2017-08-29T20:15:20.388Z,8.33
2017-08-29T20:17:47.202Z,9.20
2017-08-29T20:20:14.151Z,8.83
2017-08-29T20:22:41.013Z,10.10
2017-08-29T20:25:07.896Z,9.07
2017-08-29T20:27:34.804Z,9.50
2017-08-29T20:30:01.692Z,7.57
2017-08-29T20:32:28.551Z,7.77
2017-08-29T20:34:55.439Z,6.97
2017-08-29T20:37:22.307Z,7.53
2017-08-29T20:39:49.161Z,7.17
2017-08-29T20:42:16.016Z,6.83
2017-08-29T20:44:42.935Z,8.03
2017-08-29T20:47:09.819Z,7.13
2017-08-29T20:49:36.666Z,7.47
2017-08-29T20:52:04.413Z,6.97
2017-08-29T20:54:31.270Z,6.40
2017-08-29T20:56:58.169Z,7.20
2017-08-29T20:59:24.978Z,7.37
2017-08-29T21:01:51.819Z,7.63
2017-08-29T21:04:18.713Z,7.17
2017-08-29T21:06:45.553Z,7.10
2017-08-29T21:09:12.391Z,6.10
2017-08-29T21:11:39.266Z,7.30
2017-08-29T21:14:06.075Z,6.93
2017-08-29T21:16:32.938Z,6.60
2017-08-29T21:18:59.819Z,7.73
2017-08-29T21:21:26.658Z,7.83
2017-08-29T21:23:53.511Z,7.00
2017-08-29T21:26:20.415Z,7.50
2017-08-29T21:28:47.254Z,8.23
2017-08-29T21:31:14.162Z,7.30
2017-08-29T21:33:41.037Z,7.60
2017-08-29T21:36:07.906Z,7.60
2017-08-29T21:38:34.773Z,7.20
2017-08-29T21:41:01.656Z,7.23
2017-08-29T21:43:28.509Z,6.83
2017-08-29T21:45:55.388Z,6.50
2017-08-29T21:48:22.290Z,6.00
2017-08-29T21:50:49.147Z,6.83
2017-08-29T21:53:16.000Z,6.80
2017-08-29T21:55:42.850Z,7.50
2017-08-29T21:58:09.702Z,7.57
2017-08-29T22:00:36.544Z,6.50
2017-08-29T22:03:03.408Z,7.53
2017-08-29T22:05:30.280Z,6.47
2017-08-29T22:07:57.201Z,7.00
2017-08-29T22:10:24.061Z,6.50
2017-08-29T22:12:50.913Z,6.53
2017-08-29T22:15:17.767Z,6.77
2017-08-29T22:17:44.643Z,5.90
2017-08-29T22:20:11.529Z,5.77
2017-08-29T22:22:38.376Z,6.00
2017-08-29T22:25:05.279Z,6.00
2017-08-29T22:27:32.100Z,6.30
2017-08-29T22:29:58.949Z,6.00
2017-08-29T22:32:25.854Z,6.40
2017-08-29T22:34:52.663Z,6.13
2017-08-29T22:37:19.537Z,6.33
2017-08-29T22:39:46.387Z,6.03
2017-08-29T22:42:13.201Z,6.37
2017-08-29T22:44:40.047Z,6.83
2017-08-29T22:47:06.900Z,6.83
2017-08-29T22:49:33.782Z,6.40
2017-08-29T22:52:00.644Z,6.63
2017-08-29T22:54:27.553Z,6.80
2017-08-29T22:56:54.410Z,6.17
2017-08-29T22:59:21.272Z,5.57
2017-08-29T23:01:48.173Z,6.47
2017-08-29T23:04:15.033Z,6.43
2017-08-29T23:06:41.919Z,8.43
2017-08-29T23:09:08.779Z,5.70
2017-08-29T23:11:35.660Z,6.40
2017-08-29T23:14:02.467Z,6.50
2017-08-29T23:16:29.378Z,6.23
2017-08-29T23:18:56.192Z,6.27
2017-08-29T23:21:23.046Z,6.10
2017-08-29T23:23:49.938Z,6.23
2017-08-29T23:26:16.748Z,6.13
2017-08-29T23:28:43.568Z,7.00
2017-08-29T23:31:10.471Z,6.30
2017-08-29T23:33:37.276Z,6.67
2017-08-29T23:36:04.236Z,7.00
2017-08-29T23:38:31.144Z,5.70
2017-08-29T23:40:57.954Z,5.50
2017-08-29T23:43:24.810Z,6.30
2017-08-29T23:45:51.709Z,6.57
2017-08-29T23:48:18.514Z,5.83
2017-08-29T23:50:45.362Z,6.60
2017-08-29T23:53:12.223Z,6.77
2017-08-29T23:55:39.063Z,6.33
2017-08-29T23:58:05.936Z,6.50
